Hawley Lake, Arizona
Current Conditions -  °F | °C
As of 4:55 AM on Thursday 30 Oct 2014 (Local Time) from KSOW Reporting Station
Haze Haze  
Wind Chill: 34°   Ceiling: Unl
Heat Index: 34°   Visibility: 1.2mi
Dew Point: 23°   Wind: 0mph
Humidity: 65%   Direction: NA
Pressure: 30.33"   Gusts: NA
Location:  33.9836°N, 109.746°W
Report Text: KSOW 301155Z AUTO 00000KT 1 1/4SM HZ CLR 01/M05 A3033 RMK AO2
Loading
Personal Weather Stations






























Interactive Weather Map
Tropical Storm Tracking
New forecast layout! Learn more

10-Day Weather Forecast

Advertisements
Track Severe Weather on mobile